TimeCST,TemperatureF,Dew PointF,Humidity,Sea Level PressureIn,VisibilityMPH,Wind Direction,Wind SpeedMPH,Gust SpeedMPH,PrecipitationIn,Events,Conditions,WindDirDegrees,DateUTC
12:10 AM,30.2,30.2,100,30.40,10.0,North,11.5,-,N/A,,Partly Cloudy,360,2013-02-16 06:10:00
12:50 AM,26.6,23.0,86,30.41,10.0,North,8.1,-,N/A,,Clear,350,2013-02-16 06:50:00
1:10 AM,24.8,21.2,86,30.40,10.0,North,8.1,-,N/A,,Clear,350,2013-02-16 07:10:00
1:30 AM,23.0,19.4,86,30.40,10.0,NNW,8.1,-,N/A,,Clear,340,2013-02-16 07:30:00
1:50 AM,23.0,17.6,80,30.40,10.0,NW,5.8,-,N/A,,Partly Cloudy,320,2013-02-16 07:50:00
2:10 AM,21.2,19.4,93,30.39,10.0,NW,3.5,-,N/A,,Partly Cloudy,320,2013-02-16 08:10:00
2:30 AM,21.2,17.6,86,30.39,10.0,NW,5.8,-,N/A,,Clear,310,2013-02-16 08:30:00
2:50 AM,19.4,15.8,86,30.40,10.0,West,4.6,-,N/A,,Clear,280,2013-02-16 08:50:00
3:10 AM,23.0,19.4,86,30.39,10.0,NW,4.6,-,N/A,,Clear,310,2013-02-16 09:10:00
3:30 AM,23.0,15.8,74,30.39,10.0,NNW,6.9,-,N/A,,Clear,330,2013-02-16 09:30:00
3:50 AM,17.6,15.8,93,30.38,10.0,WNW,5.8,-,N/A,,Clear,300,2013-02-16 09:50:00
4:10 AM,19.4,15.8,86,30.37,10.0,WSW,5.8,-,N/A,,Clear,250,2013-02-16 10:10:00
4:30 AM,15.8,14.0,93,30.38,10.0,West,6.9,-,N/A,,Clear,270,2013-02-16 10:30:00
5:10 AM,17.6,14.0,86,30.37,10.0,West,5.8,-,N/A,,Clear,270,2013-02-16 11:10:00
5:30 AM,17.6,14.0,86,30.36,10.0,WNW,4.6,-,N/A,,Clear,290,2013-02-16 11:30:00
5:50 AM,17.6,14.0,86,30.36,10.0,WNW,5.8,-,N/A,,Clear,290,2013-02-16 11:50:00
6:10 AM,17.6,14.0,86,30.36,10.0,WNW,6.9,-,N/A,,Clear,290,2013-02-16 12:10:00
6:30 AM,19.4,15.8,86,30.35,10.0,WNW,5.8,-,N/A,,Clear,290,2013-02-16 12:30:00
6:50 AM,17.6,14.0,86,30.35,10.0,West,4.6,-,N/A,,Clear,280,2013-02-16 12:50:00
7:10 AM,17.6,15.8,93,30.34,10.0,West,6.9,-,N/A,,Clear,260,2013-02-16 13:10:00
7:30 AM,17.6,14.0,86,30.34,10.0,West,4.6,-,N/A,,Clear,260,2013-02-16 13:30:00
7:50 AM,17.6,15.8,93,30.34,10.0,Calm,Calm,-,N/A,,Clear,0,2013-02-16 13:50:00
8:10 AM,19.4,17.6,93,30.34,10.0,WSW,4.6,-,N/A,,Clear,240,2013-02-16 14:10:00
8:30 AM,23.0,19.4,86,30.33,10.0,SW,6.9,-,N/A,,Clear,230,2013-02-16 14:30:00
8:50 AM,24.8,23.0,93,30.33,10.0,SW,8.1,-,N/A,,Clear,230,2013-02-16 14:50:00
9:10 AM,26.6,23.0,86,30.33,10.0,SW,10.4,-,N/A,,Clear,230,2013-02-16 15:10:00
9:30 AM,28.4,23.0,80,30.33,10.0,SSW,9.2,-,N/A,,Partly Cloudy,210,2013-02-16 15:30:00
9:50 AM,30.2,23.0,75,30.31,10.0,SSW,12.7,-,N/A,,Scattered Clouds,210,2013-02-16 15:50:00
10:10 AM,32.0,21.2,64,30.30,10.0,SSW,12.7,-,N/A,,Mostly Cloudy,210,2013-02-16 16:10:00
10:30 AM,32.0,23.0,69,30.30,10.0,SSW,13.8,-,N/A,,Scattered Clouds,210,2013-02-16 16:30:00
10:50 AM,35.6,24.8,65,30.27,10.0,SSW,16.1,-,N/A,,Clear,200,2013-02-16 16:50:00
11:10 AM,37.4,28.4,70,30.27,10.0,SSW,13.8,18.4,N/A,,Clear,200,2013-02-16 17:10:00
11:30 AM,39.2,26.6,61,30.25,10.0,South,15.0,-,N/A,,Clear,190,2013-02-16 17:30:00
11:50 AM,39.2,28.4,65,30.23,10.0,South,15.0,21.9,N/A,,Clear,190,2013-02-16 17:50:00
12:10 PM,42.8,28.4,57,30.20,10.0,SSW,18.4,25.3,N/A,,Clear,210,2013-02-16 18:10:00
12:30 PM,44.6,28.4,53,30.19,10.0,SSW,19.6,23.0,N/A,,Clear,200,2013-02-16 18:30:00
12:50 PM,46.4,28.4,50,30.18,10.0,SW,19.6,25.3,N/A,,Clear,220,2013-02-16 18:50:00
1:10 PM,46.4,28.4,50,30.16,10.0,SW,20.7,26.5,N/A,,Clear,220,2013-02-16 19:10:00
1:30 PM,48.2,30.2,50,30.13,10.0,SW,18.4,-,N/A,,Clear,220,2013-02-16 19:30:00
1:50 PM,50.0,32.0,50,30.12,10.0,SW,16.1,24.2,N/A,,Clear,220,2013-02-16 19:50:00
2:10 PM,53.6,32.0,44,30.11,10.0,SSW,11.5,20.7,N/A,,Clear,210,2013-02-16 20:10:00
2:30 PM,55.4,26.6,33,30.10,10.0,West,13.8,23.0,N/A,,Clear,260,2013-02-16 20:30:00
2:50 PM,57.2,28.4,33,30.08,10.0,West,13.8,20.7,N/A,,Clear,270,2013-02-16 20:50:00
3:10 PM,59.0,28.4,31,30.08,10.0,West,8.1,-,N/A,,Clear,270,2013-02-16 21:10:00
3:30 PM,59.0,26.6,29,30.06,10.0,West,11.5,-,N/A,,Clear,260,2013-02-16 21:30:00
3:50 PM,59.0,26.6,29,30.05,10.0,West,9.2,16.1,N/A,,Clear,280,2013-02-16 21:50:00
4:10 PM,60.8,26.6,27,30.04,10.0,West,9.2,-,N/A,,Clear,260,2013-02-16 22:10:00
4:30 PM,59.0,24.8,27,30.04,10.0,West,8.1,-,N/A,,Clear,260,2013-02-16 22:30:00
4:50 PM,59.0,26.6,29,30.03,10.0,WSW,5.8,-,N/A,,Clear,240,2013-02-16 22:50:00
5:10 PM,59.0,24.8,27,30.02,10.0,SW,4.6,-,N/A,,Mostly Cloudy,220,2013-02-16 23:10:00
5:50 PM,55.4,32.0,41,30.01,10.0,South,5.8,-,N/A,,Overcast,170,2013-02-16 23:50:00
6:10 PM,53.6,32.0,44,30.01,10.0,SSE,9.2,-,N/A,,Overcast,150,2013-02-17 00:10:00
6:30 PM,50.0,35.6,58,30.02,10.0,SSE,15.0,-,N/A,,Overcast,160,2013-02-17 00:30:00
6:50 PM,48.2,35.6,62,30.02,10.0,SSE,11.5,-,N/A,,Mostly Cloudy,150,2013-02-17 00:50:00
7:10 PM,46.4,33.8,62,30.03,10.0,SSE,10.4,-,N/A,,Mostly Cloudy,160,2013-02-17 01:10:00
7:30 PM,44.6,33.8,66,30.03,10.0,South,9.2,-,N/A,,Mostly Cloudy,170,2013-02-17 01:30:00
7:50 PM,44.6,33.8,66,30.03,10.0,SSE,11.5,-,N/A,,Overcast,160,2013-02-17 01:50:00
8:10 PM,42.8,33.8,70,30.03,10.0,South,11.5,-,N/A,,Overcast,180,2013-02-17 02:10:00
8:50 PM,42.8,33.8,70,30.02,10.0,SW,8.1,-,N/A,,Overcast,220,2013-02-17 02:50:00
9:10 PM,42.8,32.0,66,30.02,10.0,SW,6.9,-,N/A,,Mostly Cloudy,230,2013-02-17 03:10:00
9:30 PM,39.2,32.0,75,30.02,10.0,SW,9.2,-,N/A,,Partly Cloudy,230,2013-02-17 03:30:00
9:50 PM,41.0,30.2,65,30.03,10.0,WSW,10.4,-,N/A,,Clear,240,2013-02-17 03:50:00
10:10 PM,42.8,30.2,61,30.02,10.0,SW,11.5,-,N/A,,Clear,230,2013-02-17 04:10:00
10:30 PM,39.2,30.2,70,30.02,10.0,SSW,11.5,-,N/A,,Clear,210,2013-02-17 04:30:00
10:50 PM,37.4,28.4,70,30.02,10.0,SSW,11.5,-,N/A,,Clear,200,2013-02-17 04:50:00
11:10 PM,41.0,30.2,65,30.02,10.0,SW,13.8,-,N/A,,Clear,220,2013-02-17 05:10:00
11:30 PM,41.0,28.4,61,30.01,10.0,SW,11.5,-,N/A,,Clear,230,2013-02-17 05:30:00
11:50 PM,41.0,28.4,61,30.01,10.0,SW,12.7,-,N/A,,Clear,230,2013-02-17 05:50:00